createdAt,value
2018-03-06T00:01:48.433Z,26.62
2018-03-06T00:04:16.757Z,26.15
2018-03-06T00:06:45.116Z,29.40
2018-03-06T00:09:14.512Z,33.35
2018-03-06T00:11:42.865Z,32.05
2018-03-06T00:14:11.187Z,30.45
2018-03-06T00:16:39.551Z,32.70
2018-03-06T00:19:07.906Z,27.40
2018-03-06T00:21:36.285Z,32.80
2018-03-06T00:24:04.692Z,29.15
2018-03-06T00:26:33.037Z,28.67
2018-03-06T00:29:01.373Z,27.13
2018-03-06T00:31:29.795Z,38.90
2018-03-06T00:33:58.216Z,22.77
2018-03-06T00:36:26.561Z,31.65
2018-03-06T00:38:54.935Z,30.90
2018-03-06T00:41:23.330Z,28.75
2018-03-06T00:43:51.714Z,31.02
2018-03-06T00:46:20.069Z,31.80
2018-03-06T00:48:48.443Z,30.08
2018-03-06T00:51:16.808Z,34.22
2018-03-06T00:53:45.583Z,35.88
2018-03-06T00:56:14.130Z,32.80
2018-03-06T00:58:42.471Z,30.27
2018-03-06T01:01:11.683Z,32.20
2018-03-06T01:03:40.177Z,26.92
2018-03-06T01:06:08.528Z,30.17
2018-03-06T01:08:36.906Z,25.90
2018-03-06T01:11:05.252Z,36.90
2018-03-06T01:13:33.577Z,29.00
2018-03-06T01:16:02.004Z,28.45
2018-03-06T01:18:31.149Z,26.98
2018-03-06T01:20:59.506Z,34.50
2018-03-06T01:23:28.621Z,31.00
2018-03-06T01:25:56.996Z,33.30
2018-03-06T01:28:25.333Z,32.38
2018-03-06T01:30:53.698Z,27.60
2018-03-06T01:33:22.074Z,38.53
2018-03-06T01:35:50.660Z,33.15
2018-03-06T01:38:19.398Z,24.80
2018-03-06T01:40:47.733Z,49.83
2018-03-06T01:43:16.073Z,32.55
2018-03-06T01:45:44.434Z,30.48
2018-03-06T01:48:13.521Z,31.62
2018-03-06T01:50:42.651Z,30.98
2018-03-06T01:53:11.101Z,30.17
2018-03-06T01:55:39.466Z,31.33
2018-03-06T01:58:07.789Z,37.08
2018-03-06T02:00:36.268Z,27.75
2018-03-06T02:03:04.597Z,30.17
2018-03-06T02:05:32.914Z,34.00
2018-03-06T02:08:01.289Z,31.50
2018-03-06T02:10:29.630Z,27.45
2018-03-06T02:12:58.030Z,31.15
2018-03-06T02:15:27.207Z,32.90
2018-03-06T02:17:55.526Z,30.30
2018-03-06T02:20:23.925Z,31.50
2018-03-06T02:22:52.664Z,29.87
2018-03-06T02:25:20.981Z,28.70
2018-03-06T02:27:49.302Z,38.17
2018-03-06T02:30:17.749Z,30.35
2018-03-06T02:32:46.062Z,34.08
2018-03-06T02:35:14.392Z,30.08
2018-03-06T02:37:42.732Z,34.10
2018-03-06T02:40:11.038Z,29.65
2018-03-06T02:42:39.364Z,32.55
2018-03-06T02:45:08.543Z,31.48
2018-03-06T02:47:36.863Z,37.65
2018-03-06T02:50:05.189Z,37.00
2018-03-06T02:52:33.538Z,33.03
2018-03-06T02:55:03.689Z,28.85
2018-03-06T02:57:32.098Z,40.95
2018-03-06T03:00:00.475Z,37.13
2018-03-06T03:02:28.792Z,32.22
2018-03-06T03:04:57.913Z,30.70
2018-03-06T03:07:27.116Z,40.03
2018-03-06T03:09:55.446Z,32.72
2018-03-06T03:12:23.772Z,33.45
2018-03-06T03:14:52.118Z,32.95
2018-03-06T03:17:20.461Z,28.08
2018-03-06T03:19:49.554Z,33.70
2018-03-06T03:22:17.927Z,35.50
2018-03-06T03:24:47.053Z,38.30
2018-03-06T03:27:15.409Z,38.38
2018-03-06T03:29:43.990Z,33.05
2018-03-06T03:32:13.117Z,38.30
2018-03-06T03:34:41.504Z,41.13
2018-03-06T03:37:09.876Z,33.65
2018-03-06T03:39:38.203Z,30.95
2018-03-06T03:42:06.605Z,43.42
2018-03-06T03:44:35.791Z,34.83
2018-03-06T03:47:04.146Z,32.30
2018-03-06T03:49:32.500Z,34.35
2018-03-06T03:52:01.281Z,34.45
2018-03-06T03:54:29.714Z,35.78
2018-03-06T03:56:58.130Z,34.28
2018-03-06T03:59:27.261Z,34.17
2018-03-06T04:01:55.585Z,41.55
2018-03-06T04:04:24.762Z,38.80
2018-03-06T04:06:53.921Z,36.22
2018-03-06T04:09:22.289Z,34.40
2018-03-06T04:11:50.629Z,45.95
2018-03-06T04:14:19.401Z,89.82
2018-03-06T04:16:47.811Z,96.68
2018-03-06T04:19:16.153Z,76.20
2018-03-06T04:21:44.497Z,59.05
2018-03-06T04:24:12.853Z,59.92
2018-03-06T04:26:41.973Z,63.45
2018-03-06T04:29:10.374Z,69.87
2018-03-06T04:31:38.735Z,63.83
2018-03-06T04:34:07.058Z,52.13
2018-03-06T04:36:35.591Z,44.70
2018-03-06T04:39:03.970Z,43.75
2018-03-06T04:41:32.329Z,51.50
2018-03-06T04:44:00.694Z,42.38
2018-03-06T04:46:29.022Z,52.58
2018-03-06T04:48:57.357Z,42.88
2018-03-06T04:51:25.998Z,59.72
2018-03-06T04:53:54.318Z,58.60
2018-03-06T04:56:22.677Z,57.97
2018-03-06T04:58:51.331Z,45.92
2018-03-06T05:01:19.662Z,58.87
2018-03-06T05:03:48.008Z,52.97
2018-03-06T05:06:16.427Z,74.10
2018-03-06T05:08:45.578Z,67.07
2018-03-06T05:11:13.876Z,45.65
2018-03-06T05:13:42.218Z,49.35
2018-03-06T05:16:10.597Z,58.47
2018-03-06T05:18:38.940Z,58.47
2018-03-06T05:21:07.483Z,47.35
2018-03-06T05:23:35.833Z,55.85
2018-03-06T05:26:04.178Z,55.63
2018-03-06T05:28:32.509Z,57.17
2018-03-06T05:31:00.826Z,53.67
2018-03-06T05:33:29.206Z,57.80
2018-03-06T05:35:57.598Z,65.60
2018-03-06T05:38:25.966Z,57.75
2018-03-06T05:40:54.326Z,60.50
2018-03-06T05:43:22.860Z,56.05
2018-03-06T05:45:51.282Z,61.65
2018-03-06T05:48:19.616Z,58.80
2018-03-06T05:50:48.812Z,70.82
2018-03-06T05:53:17.142Z,72.57
2018-03-06T05:55:45.478Z,78.28
2018-03-06T05:58:13.848Z,76.00
2018-03-06T06:00:42.951Z,78.32
2018-03-06T06:03:12.056Z,81.82
2018-03-06T06:05:40.699Z,76.30
2018-03-06T06:08:09.133Z,84.00
2018-03-06T06:10:37.480Z,78.30
2018-03-06T06:13:05.837Z,79.72
2018-03-06T06:15:35.034Z,84.72
2018-03-06T06:18:03.337Z,87.45
2018-03-06T06:20:31.694Z,85.72
2018-03-06T06:22:59.984Z,84.00
2018-03-06T06:25:28.332Z,87.12
2018-03-06T06:27:56.879Z,86.07
2018-03-06T06:30:25.232Z,94.60
2018-03-06T06:32:53.572Z,80.12
2018-03-06T06:35:21.952Z,93.40
2018-03-06T06:37:50.298Z,93.18
2018-03-06T06:40:18.672Z,95.18
2018-03-06T06:42:47.022Z,97.10
2018-03-06T06:45:15.359Z,102.70
2018-03-06T06:47:43.664Z,93.85
2018-03-06T06:50:13.002Z,103.80
2018-03-06T06:52:42.146Z,104.50
2018-03-06T06:55:10.483Z,108.68
2018-03-06T06:57:39.628Z,108.30
2018-03-06T07:00:07.946Z,112.22
2018-03-06T07:02:36.294Z,108.63
2018-03-06T07:05:04.681Z,113.60
2018-03-06T07:07:33.019Z,106.70
2018-03-06T07:10:01.355Z,105.63
2018-03-06T07:12:30.682Z,108.40
2018-03-06T07:14:59.068Z,112.00
2018-03-06T07:17:27.443Z,110.50
2018-03-06T07:19:55.862Z,112.53
2018-03-06T07:22:24.209Z,104.87
2018-03-06T07:24:52.566Z,113.50
2018-03-06T07:27:20.964Z,117.37
2018-03-06T07:29:49.347Z,112.47
2018-03-06T07:32:17.706Z,110.17
2018-03-06T07:34:47.026Z,110.90
2018-03-06T07:37:15.364Z,123.50
2018-03-06T07:39:43.710Z,122.97
2018-03-06T07:42:12.832Z,112.17
2018-03-06T07:44:41.201Z,108.93
2018-03-06T07:47:09.582Z,108.73
2018-03-06T07:49:37.969Z,135.93
2018-03-06T07:52:06.306Z,115.33
2018-03-06T07:54:34.619Z,108.60
2018-03-06T07:57:03.308Z,107.37
2018-03-06T07:59:31.626Z,103.87
2018-03-06T08:02:00.702Z,107.90
2018-03-06T08:04:29.862Z,105.40
2018-03-06T08:06:58.257Z,106.97
2018-03-06T08:09:26.618Z,119.87
2018-03-06T08:11:54.980Z,126.70
2018-03-06T08:14:23.308Z,113.57
2018-03-06T08:16:51.792Z,130.33
2018-03-06T08:19:20.464Z,117.63
2018-03-06T08:21:48.802Z,113.93
2018-03-06T08:24:17.161Z,113.93
2018-03-06T08:26:45.534Z,115.73
2018-03-06T08:29:14.648Z,122.70
2018-03-06T08:31:42.987Z,110.23
2018-03-06T08:34:11.370Z,109.70
2018-03-06T08:36:39.761Z,120.50
2018-03-06T08:39:08.082Z,119.10
2018-03-06T08:41:36.537Z,110.47
2018-03-06T08:44:04.872Z,109.77
2018-03-06T08:46:33.255Z,117.50
2018-03-06T08:49:01.623Z,113.80
2018-03-06T08:51:29.983Z,110.27
2018-03-06T08:53:58.322Z,118.00
2018-03-06T08:56:26.692Z,117.80
2018-03-06T08:58:55.795Z,109.60
2018-03-06T09:01:24.882Z,109.67
2018-03-06T09:03:54.177Z,108.63
2018-03-06T09:06:22.536Z,109.93
2018-03-06T09:08:50.886Z,114.47
2018-03-06T09:11:19.252Z,115.30
2018-03-06T09:13:47.854Z,115.63
2018-03-06T09:16:16.161Z,116.47
2018-03-06T09:18:44.538Z,112.60
2018-03-06T09:21:12.866Z,119.67
2018-03-06T09:23:41.248Z,125.30
2018-03-06T09:26:10.273Z,112.27
2018-03-06T09:28:38.602Z,114.43
2018-03-06T09:31:07.764Z,110.73
2018-03-06T09:33:36.162Z,122.90
2018-03-06T09:36:04.510Z,122.90
2018-03-06T09:38:32.867Z,116.63
2018-03-06T09:41:01.249Z,112.90
2018-03-06T09:43:29.605Z,113.43
2018-03-06T09:45:57.962Z,112.47
2018-03-06T09:48:28.124Z,115.27
2018-03-06T09:50:56.470Z,114.30
2018-03-06T09:53:24.801Z,118.23
2018-03-06T09:55:53.157Z,106.17
2018-03-06T09:58:21.492Z,111.80
2018-03-06T10:00:49.852Z,116.03
2018-03-06T10:03:18.674Z,112.13
2018-03-06T10:05:47.005Z,110.07
2018-03-06T10:08:15.346Z,115.50
2018-03-06T10:10:43.866Z,108.70
2018-03-06T10:13:12.220Z,111.73
2018-03-06T10:15:40.553Z,114.13
2018-03-06T10:18:08.896Z,119.33
2018-03-06T10:20:37.237Z,111.40
2018-03-06T10:23:06.324Z,104.40
2018-03-06T10:25:34.676Z,103.13
2018-03-06T10:28:03.062Z,111.60
2018-03-06T10:30:31.398Z,104.13
2018-03-06T10:33:00.254Z,112.73
2018-03-06T10:35:29.423Z,104.30
2018-03-06T10:37:58.148Z,106.17
2018-03-06T10:40:26.490Z,109.37
2018-03-06T10:42:54.857Z,116.40
2018-03-06T10:45:23.184Z,101.83
2018-03-06T10:47:51.592Z,104.20
2018-03-06T10:50:19.923Z,110.07
2018-03-06T10:52:48.239Z,105.53
2018-03-06T10:55:17.021Z,108.40
2018-03-06T10:57:45.373Z,101.27
2018-03-06T11:00:14.484Z,102.50
2018-03-06T11:02:42.844Z,97.67
2018-03-06T11:05:11.210Z,102.90
2018-03-06T11:07:39.557Z,96.97
2018-03-06T11:10:07.957Z,99.40
2018-03-06T11:12:36.276Z,104.57
2018-03-06T11:15:05.381Z,113.70
2018-03-06T11:17:34.352Z,102.30
2018-03-06T11:20:03.425Z,116.20
2018-03-06T11:22:31.772Z,112.90
2018-03-06T11:25:00.367Z,108.70
2018-03-06T11:27:28.771Z,109.67
2018-03-06T11:29:57.117Z,105.77
2018-03-06T11:32:25.545Z,110.17
2018-03-06T11:34:53.885Z,102.63
2018-03-06T11:37:22.907Z,113.80
2018-03-06T11:39:52.400Z,101.93
2018-03-06T11:42:20.788Z,113.60
2018-03-06T11:44:49.128Z,110.57
2018-03-06T11:47:17.478Z,111.23
2018-03-06T11:49:46.564Z,112.77
2018-03-06T11:52:15.671Z,113.63
2018-03-06T11:54:44.869Z,106.70
2018-03-06T11:57:13.234Z,112.00
2018-03-06T11:59:42.336Z,110.00
2018-03-06T12:02:12.363Z,108.13
2018-03-06T12:04:41.469Z,113.20
2018-03-06T12:07:09.887Z,122.70
2018-03-06T12:09:38.302Z,104.60
2018-03-06T12:12:07.415Z,106.90
2018-03-06T12:14:36.552Z,102.00
2018-03-06T12:17:04.902Z,100.03
2018-03-06T12:19:33.868Z,100.97
2018-03-06T12:22:02.963Z,104.37
2018-03-06T12:24:31.408Z,114.77
2018-03-06T12:26:59.756Z,102.77
2018-03-06T12:29:28.453Z,98.77
2018-03-06T12:31:56.810Z,100.60
2018-03-06T12:34:26.217Z,101.90
2018-03-06T12:36:54.544Z,99.07
2018-03-06T12:39:22.928Z,106.43
2018-03-06T12:41:51.509Z,104.30
2018-03-06T12:44:20.787Z,109.03
2018-03-06T12:46:49.566Z,108.97
2018-03-06T12:49:17.926Z,103.37
2018-03-06T12:51:47.058Z,120.20
2018-03-06T12:54:15.440Z,113.50
2018-03-06T12:56:43.812Z,106.30
2018-03-06T12:59:12.152Z,116.43
2018-03-06T13:01:41.165Z,107.87
2018-03-06T13:04:09.486Z,109.13
2018-03-06T13:06:37.812Z,108.33
2018-03-06T13:09:06.376Z,102.97
2018-03-06T13:11:34.687Z,119.10
2018-03-06T13:14:03.004Z,109.93
2018-03-06T13:16:32.661Z,108.90
2018-03-06T13:19:01.033Z,106.20
2018-03-06T13:21:30.113Z,113.40
2018-03-06T13:23:59.261Z,106.50
2018-03-06T13:26:27.634Z,108.53
2018-03-06T13:28:55.992Z,113.33
2018-03-06T13:31:24.668Z,114.27
2018-03-06T13:33:53.034Z,118.23
2018-03-06T13:36:22.141Z,114.17
2018-03-06T13:38:51.844Z,115.77
2018-03-06T13:41:20.944Z,128.33
2018-03-06T13:43:50.178Z,117.93
2018-03-06T13:46:18.615Z,112.33
2018-03-06T13:48:47.726Z,117.97
2018-03-06T13:51:16.050Z,109.93
2018-03-06T13:53:44.904Z,110.60
2018-03-06T13:56:13.266Z,116.03
2018-03-06T13:58:42.543Z,110.10
2018-03-06T14:01:10.887Z,110.00
2018-03-06T14:03:39.240Z,113.20
2018-03-06T14:06:07.621Z,111.93
2018-03-06T14:08:36.276Z,118.00
2018-03-06T14:11:04.625Z,111.00
2018-03-06T14:13:32.973Z,108.70
2018-03-06T14:16:01.515Z,109.23
2018-03-06T14:18:29.843Z,114.77
2018-03-06T14:20:58.167Z,119.60
2018-03-06T14:23:26.576Z,113.33
2018-03-06T14:25:55.665Z,110.13
2018-03-06T14:28:24.804Z,115.23
2018-03-06T14:30:53.212Z,106.37
2018-03-06T14:33:21.562Z,109.63
2018-03-06T14:35:49.917Z,111.07
2018-03-06T14:38:18.589Z,104.20
2018-03-06T14:40:47.691Z,100.50
2018-03-06T14:43:16.253Z,107.83
2018-03-06T14:45:45.562Z,111.67
2018-03-06T14:48:14.694Z,109.97
2018-03-06T14:50:43.025Z,113.23
2018-03-06T14:53:11.395Z,116.07
2018-03-06T14:55:39.748Z,104.20
2018-03-06T14:58:08.122Z,108.80
2018-03-06T15:00:36.548Z,105.00
2018-03-06T15:03:04.904Z,103.10
2018-03-06T15:05:33.261Z,97.37
2018-03-06T15:08:01.646Z,92.23
2018-03-06T15:10:29.991Z,99.23
2018-03-06T15:12:58.325Z,105.20
2018-03-06T15:15:26.669Z,88.33
2018-03-06T15:17:55.049Z,86.07
2018-03-06T15:20:23.406Z,90.97
2018-03-06T15:22:52.186Z,82.07
2018-03-06T15:25:21.276Z,85.90
2018-03-06T15:27:50.400Z,91.83
2018-03-06T15:30:18.766Z,89.57
2018-03-06T15:32:47.105Z,83.60
2018-03-06T15:35:15.452Z,78.97
2018-03-06T15:37:43.843Z,94.07
2018-03-06T15:40:12.205Z,86.43
2018-03-06T15:42:40.521Z,97.40
2018-03-06T15:45:09.650Z,81.70
2018-03-06T15:47:38.004Z,101.77
2018-03-06T15:50:06.374Z,92.33
2018-03-06T15:52:34.762Z,92.30
2018-03-06T15:55:03.109Z,93.80
2018-03-06T15:57:31.456Z,83.17
2018-03-06T15:59:59.841Z,97.13
2018-03-06T16:02:28.193Z,86.40
2018-03-06T16:04:56.571Z,89.30
2018-03-06T16:07:26.298Z,93.80
2018-03-06T16:09:54.790Z,87.07
2018-03-06T16:12:23.112Z,96.03
2018-03-06T16:14:51.464Z,84.90
2018-03-06T16:17:19.794Z,103.70
2018-03-06T16:19:48.116Z,89.10
2018-03-06T16:22:16.470Z,79.10
2018-03-06T16:24:44.816Z,88.10
2018-03-06T16:27:13.191Z,87.03
2018-03-06T16:29:41.634Z,103.40
2018-03-06T16:32:09.975Z,81.93
2018-03-06T16:34:38.364Z,83.90
2018-03-06T16:37:07.458Z,83.60
2018-03-06T16:39:35.767Z,79.47
2018-03-06T16:42:04.125Z,79.40
2018-03-06T16:44:32.499Z,87.50
2018-03-06T16:47:01.873Z,81.70
2018-03-06T16:49:30.238Z,79.00
2018-03-06T16:51:58.790Z,87.23
2018-03-06T16:54:27.098Z,80.33
2018-03-06T16:56:55.501Z,79.83
2018-03-06T16:59:24.657Z,84.50
2018-03-06T17:01:53.000Z,87.20
2018-03-06T17:04:21.326Z,79.77
2018-03-06T17:06:49.673Z,87.57
2018-03-06T17:09:18.264Z,89.73
2018-03-06T17:11:46.603Z,85.83
2018-03-06T17:14:16.816Z,84.73
2018-03-06T17:16:45.174Z,91.03
2018-03-06T17:19:13.504Z,89.20
2018-03-06T17:21:41.893Z,91.83
2018-03-06T17:24:10.210Z,95.23
2018-03-06T17:26:38.564Z,103.97
2018-03-06T17:29:06.958Z,88.63
2018-03-06T17:31:35.269Z,83.43
2018-03-06T17:34:04.350Z,94.00
2018-03-06T17:36:32.865Z,100.83
2018-03-06T17:39:01.224Z,89.80
2018-03-06T17:41:29.558Z,101.87
2018-03-06T17:43:58.031Z,96.77
2018-03-06T17:46:26.384Z,94.00
2018-03-06T17:48:54.732Z,94.20
2018-03-06T17:51:23.136Z,100.20
2018-03-06T17:53:52.223Z,95.40
2018-03-06T17:56:21.339Z,100.30
2018-03-06T17:58:50.715Z,93.80
2018-03-06T18:01:19.129Z,92.60
2018-03-06T18:03:47.465Z,101.50
2018-03-06T18:06:15.825Z,105.77
2018-03-06T18:08:44.896Z,107.30
2018-03-06T18:11:13.355Z,105.97
2018-03-06T18:13:41.722Z,97.70
2018-03-06T18:16:10.839Z,93.27
2018-03-06T18:18:39.164Z,96.90
2018-03-06T18:21:07.734Z,99.00
2018-03-06T18:23:36.100Z,104.53
2018-03-06T18:26:04.423Z,103.47
2018-03-06T18:28:32.789Z,97.53
2018-03-06T18:31:01.101Z,97.40
2018-03-06T18:33:29.452Z,105.00
2018-03-06T18:35:57.825Z,102.57
2018-03-06T18:38:26.136Z,103.03
2018-03-06T18:40:54.481Z,94.50
2018-03-06T18:43:23.199Z,107.77
2018-03-06T18:45:52.278Z,107.93
2018-03-06T18:48:20.617Z,101.27
2018-03-06T18:51:06.605Z,103.23
2018-03-06T18:53:34.920Z,99.43
2018-03-06T18:56:03.267Z,101.70
2018-03-06T18:58:31.723Z,104.67
2018-03-06T19:04:30.389Z,102.57
2018-03-06T19:07:14.613Z,100.45
2018-03-06T19:09:43.768Z,106.37
2018-03-06T19:12:12.852Z,104.03
2018-03-06T19:14:41.958Z,96.60
2018-03-06T19:17:10.608Z,103.03
2018-03-06T19:19:38.951Z,98.28
2018-03-06T19:22:07.305Z,114.73
2018-03-06T19:24:35.686Z,101.27
2018-03-06T19:27:04.041Z,108.47
2018-03-06T19:29:32.400Z,113.00
2018-03-06T19:32:00.798Z,102.10
2018-03-06T19:34:29.119Z,105.80
2018-03-06T19:36:57.442Z,93.22
2018-03-06T19:39:27.266Z,101.05
2018-03-06T19:41:55.597Z,98.73
2018-03-06T19:44:23.984Z,105.03
2018-03-06T19:46:52.344Z,94.70
2018-03-06T19:49:20.713Z,97.20
2018-03-06T19:51:49.086Z,108.20
2018-03-06T19:54:17.469Z,99.60
2018-03-06T19:56:45.810Z,112.83
2018-03-06T19:59:14.158Z,109.00
2018-03-06T20:01:42.606Z,122.00
2018-03-06T20:04:10.951Z,114.87
2018-03-06T20:06:40.164Z,118.10
2018-03-06T20:09:09.354Z,102.70
2018-03-06T20:11:37.793Z,117.63
2018-03-06T20:14:06.146Z,114.65
2018-03-06T20:16:34.523Z,110.97
2018-03-06T20:19:08.384Z,114.80
2018-03-06T20:21:37.004Z,110.60
2018-03-06T20:27:17.119Z,114.67
2018-03-06T20:29:45.491Z,108.43
2018-03-06T20:32:19.462Z,120.83
2018-03-06T20:34:48.588Z,120.63
2018-03-06T20:37:16.952Z,110.35
2018-03-06T20:39:50.788Z,112.32
2018-03-06T20:42:19.146Z,118.80
2018-03-06T20:44:47.520Z,116.03
2018-03-06T20:47:21.152Z,129.27
2018-03-06T20:49:49.590Z,122.60
2018-03-06T20:52:18.745Z,120.83
2018-03-06T20:54:52.842Z,109.15
2018-03-06T20:57:21.171Z,109.00
2018-03-06T20:59:50.292Z,122.28
2018-03-06T21:02:18.649Z,112.10
2018-03-06T21:04:46.981Z,113.43
2018-03-06T21:07:15.329Z,119.90
2018-03-06T21:09:43.790Z,110.30
2018-03-06T21:12:12.921Z,117.78
2018-03-06T21:14:41.289Z,121.33
2018-03-06T21:17:10.568Z,126.10
2018-03-06T21:19:38.888Z,109.00
2018-03-06T21:22:07.252Z,106.12
2018-03-06T21:24:35.628Z,117.47
2018-03-06T21:27:03.973Z,111.62
2018-03-06T21:29:32.311Z,114.32
2018-03-06T21:32:00.684Z,135.60
2018-03-06T21:34:29.035Z,113.20
2018-03-06T21:36:57.386Z,116.28
2018-03-06T21:39:26.116Z,113.60
2018-03-06T21:41:54.509Z,117.65
2018-03-06T21:44:22.911Z,119.00
2018-03-06T21:46:51.298Z,121.20
2018-03-06T21:49:20.132Z,121.10
2018-03-06T21:51:48.467Z,129.32
2018-03-06T21:54:16.847Z,117.93
2018-03-06T21:56:45.210Z,119.47
2018-03-06T21:59:13.711Z,127.35
2018-03-06T22:01:42.208Z,117.87
2018-03-06T22:04:11.346Z,116.82
2018-03-06T22:06:39.699Z,120.68
2018-03-06T22:09:08.084Z,112.88
2018-03-06T22:11:36.442Z,123.72
2018-03-06T22:14:04.791Z,120.80
2018-03-06T22:16:33.298Z,123.25
2018-03-06T22:19:01.769Z,120.55
2018-03-06T22:21:30.873Z,120.90
2018-03-06T22:23:59.295Z,122.40
2018-03-06T22:26:27.648Z,136.65
2018-03-06T22:28:56.751Z,120.50
2018-03-06T22:31:26.247Z,134.20
2018-03-06T22:33:55.427Z,117.72
2018-03-06T22:36:23.773Z,132.65
2018-03-06T22:38:52.137Z,126.62
2018-03-06T22:41:20.464Z,120.40
2018-03-06T22:43:48.888Z,151.80
2018-03-06T22:46:17.560Z,121.97
2018-03-06T22:48:45.892Z,134.37
2018-03-06T22:51:14.384Z,122.35
2018-03-06T22:53:42.752Z,121.07
2018-03-06T22:56:11.088Z,126.97
2018-03-06T22:58:39.426Z,129.05
2018-03-06T23:01:07.773Z,122.75
2018-03-06T23:03:36.089Z,118.13
2018-03-06T23:06:04.424Z,125.32
2018-03-06T23:08:33.078Z,116.07
2018-03-06T23:11:01.421Z,119.32
2018-03-06T23:13:29.726Z,130.68
2018-03-06T23:15:58.110Z,126.80
2018-03-06T23:18:26.441Z,117.57
2018-03-06T23:20:54.749Z,127.80
2018-03-06T23:23:23.865Z,133.30
2018-03-06T23:25:52.997Z,129.55
2018-03-06T23:28:21.294Z,136.82
2018-03-06T23:30:50.260Z,131.57
2018-03-06T23:33:18.579Z,124.25
2018-03-06T23:35:46.896Z,133.02
2018-03-06T23:38:16.301Z,118.22
2018-03-06T23:40:44.630Z,131.98
2018-03-06T23:43:12.962Z,139.70
2018-03-06T23:45:41.308Z,141.25
2018-03-06T23:48:09.654Z,133.07
2018-03-06T23:50:37.966Z,132.37
2018-03-06T23:53:06.403Z,143.40
2018-03-06T23:55:35.489Z,140.65
2018-03-06T23:58:03.807Z,130.52
